createdAt,value
2022-07-29T00:00:18.571Z,989.39
2022-07-29T00:01:20.066Z,989.36
2022-07-29T00:02:22.091Z,989.39
2022-07-29T00:03:23.730Z,989.38
2022-07-29T00:04:25.378Z,989.36
2022-07-29T00:05:27.026Z,989.36
2022-07-29T00:06:28.835Z,989.41
2022-07-29T00:07:30.460Z,989.37
2022-07-29T00:08:32.342Z,989.39
2022-07-29T00:09:34.146Z,989.36
2022-07-29T00:10:35.945Z,989.35
2022-07-29T00:11:37.676Z,989.4
2022-07-29T00:12:39.421Z,989.35
2022-07-29T00:13:41.058Z,989.32
2022-07-29T00:14:42.824Z,989.33
2022-07-29T00:15:44.570Z,989.36
2022-07-29T00:16:46.348Z,989.34
2022-07-29T00:17:47.976Z,989.38
2022-07-29T00:18:49.679Z,989.41
2022-07-29T00:19:51.585Z,989.42
2022-07-29T00:20:53.320Z,989.44
2022-07-29T00:21:55.013Z,989.4
2022-07-29T00:22:56.728Z,989.4
2022-07-29T00:23:58.603Z,989.41
2022-07-29T00:25:00.184Z,989.42
2022-07-29T00:26:02.037Z,989.41
2022-07-29T00:27:03.643Z,989.38
2022-07-29T00:28:05.416Z,989.35
2022-07-29T00:29:33.087Z,989.38
2022-07-29T00:30:08.966Z,989.41
2022-07-29T00:31:17.895Z,989.43
2022-07-29T00:32:12.232Z,989.42
2022-07-29T00:33:14.045Z,989.43
2022-07-29T00:34:16.076Z,989.42
2022-07-29T00:35:17.677Z,989.41
2022-07-29T00:36:19.308Z,989.42
2022-07-29T00:37:20.900Z,989.42
2022-07-29T00:38:22.790Z,989.44
2022-07-29T00:39:24.444Z,989.38
2022-07-29T00:40:26.037Z,989.4
2022-07-29T00:41:27.923Z,989.4
2022-07-29T00:42:29.637Z,989.38
2022-07-29T00:43:31.308Z,989.33
2022-07-29T00:44:33.052Z,989.35
2022-07-29T00:45:34.768Z,989.31
2022-07-29T00:46:36.601Z,989.23
2022-07-29T00:47:38.329Z,989.23
2022-07-29T00:48:39.957Z,989.16
2022-07-29T00:49:41.806Z,989.17
2022-07-29T00:50:43.408Z,989.18
2022-07-29T00:51:45.145Z,989.19
2022-07-29T00:52:46.725Z,989.18
2022-07-29T00:53:48.793Z,989.17
2022-07-29T00:54:50.341Z,989.17
2022-07-29T00:55:52.383Z,989.21
2022-07-29T00:56:53.840Z,989.18
2022-07-29T00:57:55.579Z,989.18
2022-07-29T00:58:57.312Z,989.19
2022-07-29T00:59:59.110Z,989.13
2022-07-29T01:01:00.759Z,989.1
2022-07-29T01:02:02.902Z,989.11
2022-07-29T01:03:04.725Z,989.08
2022-07-29T01:04:06.046Z,989.08
2022-07-29T01:05:07.816Z,989.07
2022-07-29T01:06:19.571Z,989.06
2022-07-29T01:07:11.308Z,989.03
2022-07-29T01:08:12.965Z,989.05
2022-07-29T01:09:14.549Z,989.05
2022-07-29T01:10:16.401Z,989.03
2022-07-29T01:11:18.174Z,989.04
2022-07-29T01:12:19.988Z,988.98
2022-07-29T01:13:21.435Z,988.99
2022-07-29T01:14:23.304Z,989.02
2022-07-29T01:15:24.966Z,989.02
2022-07-29T01:16:26.899Z,988.99
2022-07-29T01:17:28.494Z,988.99
2022-07-29T01:18:30.411Z,988.98
2022-07-29T01:19:31.970Z,988.97
2022-07-29T01:20:33.858Z,989.05
2022-07-29T01:21:35.500Z,989.03
2022-07-29T01:22:37.377Z,989.13
2022-07-29T01:23:39.326Z,989.1
2022-07-29T01:24:40.813Z,989.05
2022-07-29T01:25:43.484Z,989.03
2022-07-29T01:26:44.220Z,989.02
2022-07-29T01:27:45.962Z,988.97
2022-07-29T01:28:47.701Z,988.98
2022-07-29T01:29:49.436Z,988.91
2022-07-29T01:30:51.071Z,988.85
2022-07-29T01:31:59.016Z,988.81
2022-07-29T01:32:54.665Z,988.7
2022-07-29T01:33:56.179Z,988.62
2022-07-29T01:34:57.846Z,988.57
2022-07-29T01:35:59.825Z,988.54
2022-07-29T01:37:01.593Z,988.63
2022-07-29T01:38:03.254Z,988.69
2022-07-29T01:39:04.953Z,988.67
2022-07-29T01:40:06.739Z,988.73
2022-07-29T01:41:08.468Z,988.71
2022-07-29T01:42:10.332Z,988.69
2022-07-29T01:43:11.888Z,988.65
2022-07-29T01:44:14.113Z,988.65
2022-07-29T01:45:15.350Z,988.6
2022-07-29T01:46:17.119Z,988.65
2022-07-29T01:47:18.779Z,988.55
2022-07-29T01:48:20.490Z,988.52
2022-07-29T01:49:22.474Z,988.52
2022-07-29T01:50:24.029Z,988.45
2022-07-29T01:51:25.832Z,988.46
2022-07-29T01:52:27.583Z,988.48
2022-07-29T01:53:29.339Z,988.43
2022-07-29T01:54:30.958Z,988.46
2022-07-29T01:55:32.699Z,988.5
2022-07-29T01:56:35.719Z,988.48
2022-07-29T01:57:36.240Z,988.5
2022-07-29T01:58:37.963Z,988.49
2022-07-29T01:59:39.697Z,988.49
2022-07-29T02:00:43.689Z,988.48
2022-07-29T02:01:43.661Z,988.48
2022-07-29T02:02:44.971Z,988.48
2022-07-29T02:03:46.925Z,988.46
2022-07-29T02:04:48.754Z,988.47
2022-07-29T02:05:50.579Z,988.45
2022-07-29T02:06:52.068Z,988.42
2022-07-29T02:07:53.764Z,988.44
2022-07-29T02:08:55.684Z,988.41
2022-07-29T02:09:56.957Z,988.41
2022-07-29T02:10:59.469Z,988.34
2022-07-29T02:12:00.995Z,988.37
2022-07-29T02:13:02.209Z,988.39
2022-07-29T02:14:03.945Z,988.38
2022-07-29T02:15:05.505Z,988.36
2022-07-29T02:16:07.487Z,988.35
2022-07-29T02:17:09.096Z,988.38
2022-07-29T02:18:10.913Z,988.33
2022-07-29T02:19:12.434Z,988.38
2022-07-29T02:20:14.289Z,988.33
2022-07-29T02:21:15.977Z,988.33
2022-07-29T02:22:17.638Z,988.33
2022-07-29T02:23:19.699Z,988.35
2022-07-29T02:24:21.154Z,988.39
2022-07-29T02:25:23.023Z,988.33
2022-07-29T02:26:24.770Z,988.29
2022-07-29T02:27:26.425Z,988.29
2022-07-29T02:28:28.250Z,988.31
2022-07-29T02:29:29.969Z,988.35
2022-07-29T02:30:32.162Z,988.33
2022-07-29T02:31:33.704Z,988.35
2022-07-29T02:32:35.595Z,988.35
2022-07-29T02:33:37.213Z,988.35
2022-07-29T02:34:38.676Z,988.39
2022-07-29T02:35:40.673Z,988.41
2022-07-29T02:36:42.568Z,988.4
2022-07-29T02:37:44.374Z,988.38
2022-07-29T02:38:45.972Z,988.35
2022-07-29T02:39:47.288Z,988.33
2022-07-29T02:40:50.077Z,988.38
2022-07-29T02:41:51.207Z,988.38
2022-07-29T02:42:52.704Z,988.35
2022-07-29T02:43:54.263Z,988.38
2022-07-29T02:44:55.960Z,988.38
2022-07-29T02:45:57.778Z,988.41
2022-07-29T02:47:00.261Z,988.42
2022-07-29T02:48:01.286Z,988.4
2022-07-29T02:49:03.264Z,988.39
2022-07-29T02:50:04.891Z,988.32
2022-07-29T02:51:06.708Z,988.36
2022-07-29T02:52:08.187Z,988.35
2022-07-29T02:53:10.564Z,988.29
2022-07-29T02:54:11.922Z,988.29
2022-07-29T02:55:13.671Z,988.29
2022-07-29T02:56:14.902Z,988.26
2022-07-29T02:57:16.687Z,988.23
2022-07-29T02:58:18.548Z,988.21
2022-07-29T02:59:20.317Z,988.27
2022-07-29T03:00:21.841Z,988.24
2022-07-29T03:01:23.650Z,988.26
2022-07-29T03:02:25.364Z,988.25
2022-07-29T03:03:27.175Z,988.27
2022-07-29T03:04:28.948Z,988.27
2022-07-29T03:05:30.588Z,988.26
2022-07-29T03:06:38.264Z,988.3
2022-07-29T03:07:34.149Z,988.29
2022-07-29T03:08:35.909Z,988.28
2022-07-29T03:09:37.664Z,988.29
2022-07-29T03:10:39.487Z,988.29
2022-07-29T03:11:49.132Z,988.3
2022-07-29T03:12:42.803Z,988.28
2022-07-29T03:13:44.564Z,988.25
2022-07-29T03:14:46.271Z,988.29
2022-07-29T03:15:48.046Z,988.33
2022-07-29T03:16:49.962Z,988.34
2022-07-29T03:17:51.407Z,988.34
2022-07-29T03:18:53.190Z,988.36
2022-07-29T03:19:54.899Z,988.31
2022-07-29T03:20:56.676Z,988.35
2022-07-29T03:21:58.439Z,988.38
2022-07-29T03:23:00.121Z,988.32
2022-07-29T03:24:03.524Z,988.28
2022-07-29T03:25:03.537Z,988.28
2022-07-29T03:26:15.051Z,988.33
2022-07-29T03:27:07.104Z,988.31
2022-07-29T03:28:08.744Z,988.27
2022-07-29T03:29:10.717Z,988.35
2022-07-29T03:30:12.213Z,988.34
2022-07-29T03:31:23.867Z,988.37
2022-07-29T03:32:15.755Z,988.4
2022-07-29T03:33:17.340Z,988.37
2022-07-29T03:34:19.216Z,988.41
2022-07-29T03:35:20.848Z,988.43
2022-07-29T03:36:22.600Z,988.44
2022-07-29T03:37:24.372Z,988.4
2022-07-29T03:38:26.100Z,988.42
2022-07-29T03:39:27.646Z,988.45
2022-07-29T03:40:29.479Z,988.41
2022-07-29T03:41:31.238Z,988.45
2022-07-29T03:42:34.490Z,988.47
2022-07-29T03:43:34.718Z,988.46
2022-07-29T03:44:36.444Z,988.49
2022-07-29T03:45:38.221Z,988.43
2022-07-29T03:46:40.340Z,988.49
2022-07-29T03:47:50.628Z,988.47
2022-07-29T03:48:43.529Z,988.46
2022-07-29T03:49:45.033Z,988.49
2022-07-29T03:50:46.772Z,988.5
2022-07-29T03:51:48.360Z,988.55
2022-07-29T03:52:50.441Z,988.53
2022-07-29T03:53:52.092Z,988.54
2022-07-29T03:54:53.832Z,988.53
2022-07-29T03:55:55.581Z,988.54
2022-07-29T03:56:57.318Z,988.54
2022-07-29T03:57:59.095Z,988.54
2022-07-29T03:59:00.797Z,988.55
2022-07-29T04:00:02.623Z,988.54
2022-07-29T04:01:04.096Z,988.55
2022-07-29T04:02:06.141Z,988.54
2022-07-29T04:03:10.701Z,988.51
2022-07-29T04:04:09.750Z,988.52
2022-07-29T04:05:11.193Z,988.57
2022-07-29T04:06:22.748Z,988.55
2022-07-29T04:07:14.670Z,988.55
2022-07-29T04:08:16.286Z,988.6
2022-07-29T04:09:18.162Z,988.59
2022-07-29T04:10:25.238Z,988.56
2022-07-29T04:11:21.620Z,988.64
2022-07-29T04:12:23.345Z,988.67
2022-07-29T04:13:25.083Z,988.63
2022-07-29T04:14:26.624Z,988.65
2022-07-29T04:15:31.083Z,988.63
2022-07-29T04:16:30.300Z,988.64
2022-07-29T04:17:31.995Z,988.67
2022-07-29T04:18:33.673Z,988.65
2022-07-29T04:19:35.406Z,988.68
2022-07-29T04:20:37.087Z,988.69
2022-07-29T04:21:39.079Z,988.69
2022-07-29T04:22:40.926Z,988.71
2022-07-29T04:23:46.039Z,988.68
2022-07-29T04:24:44.595Z,988.73
2022-07-29T04:25:45.793Z,988.73
2022-07-29T04:26:47.572Z,988.75
2022-07-29T04:27:49.279Z,988.75
2022-07-29T04:28:50.886Z,988.71
2022-07-29T04:29:57.089Z,988.74
2022-07-29T04:30:54.621Z,988.74
2022-07-29T04:31:56.262Z,988.71
2022-07-29T04:32:57.911Z,988.75
2022-07-29T04:34:00.038Z,988.68
2022-07-29T04:35:01.479Z,988.73
2022-07-29T04:36:03.116Z,988.67
2022-07-29T04:37:04.984Z,988.68
2022-07-29T04:38:06.731Z,988.68
2022-07-29T04:39:08.368Z,988.69
2022-07-29T04:40:10.232Z,988.68
2022-07-29T04:41:16.683Z,988.67
2022-07-29T04:42:13.641Z,988.75
2022-07-29T04:43:15.575Z,988.71
2022-07-29T04:44:17.421Z,988.7
2022-07-29T04:45:22.317Z,988.66
2022-07-29T04:46:30.311Z,988.68
2022-07-29T04:47:22.087Z,988.68
2022-07-29T04:48:28.504Z,988.69
2022-07-29T04:49:25.854Z,988.63
2022-07-29T04:50:27.545Z,988.66
2022-07-29T04:51:29.084Z,988.63
2022-07-29T04:52:30.935Z,988.62
2022-07-29T04:53:32.622Z,988.68
2022-07-29T04:54:34.433Z,988.66
2022-07-29T04:55:36.306Z,988.63
2022-07-29T04:56:37.880Z,988.64
2022-07-29T04:57:40.215Z,988.65
2022-07-29T04:58:41.382Z,988.65
2022-07-29T04:59:43.023Z,988.61
2022-07-29T05:00:44.855Z,988.62
2022-07-29T05:01:46.547Z,988.6
2022-07-29T05:02:48.327Z,988.65
2022-07-29T05:03:49.993Z,988.67
2022-07-29T05:04:51.694Z,988.67
2022-07-29T05:05:53.497Z,988.69
2022-07-29T05:06:55.235Z,988.7
2022-07-29T05:07:56.962Z,988.7
2022-07-29T05:08:58.626Z,988.68
2022-07-29T05:10:00.395Z,988.7
2022-07-29T05:11:12.463Z,988.74
2022-07-29T05:12:03.759Z,988.72
2022-07-29T05:13:05.490Z,988.74
2022-07-29T05:14:07.380Z,988.73
2022-07-29T05:15:09.172Z,988.76
2022-07-29T05:16:30.873Z,988.8
2022-07-29T05:17:12.520Z,988.77
2022-07-29T05:18:14.304Z,988.76
2022-07-29T05:19:15.970Z,988.73
2022-07-29T05:20:17.662Z,988.8
2022-07-29T05:21:19.474Z,988.77
2022-07-29T05:22:21.341Z,988.79
2022-07-29T05:23:22.953Z,988.78
2022-07-29T05:24:24.699Z,988.78
2022-07-29T05:25:43.179Z,988.73
2022-07-29T05:26:28.164Z,988.75
2022-07-29T05:27:30.291Z,988.73
2022-07-29T05:28:31.634Z,988.75
2022-07-29T05:29:45.019Z,988.76
2022-07-29T05:30:35.200Z,988.71
2022-07-29T05:31:36.708Z,988.73
2022-07-29T05:32:38.691Z,988.66
2022-07-29T05:33:40.695Z,988.67
2022-07-29T05:34:50.394Z,988.68
2022-07-29T05:35:43.853Z,988.7
2022-07-29T05:36:45.512Z,988.69
2022-07-29T05:37:47.179Z,988.69
2022-07-29T05:38:48.835Z,988.68
2022-07-29T05:39:56.695Z,988.69
2022-07-29T05:40:52.445Z,988.74
2022-07-29T05:41:54.101Z,988.74
2022-07-29T05:42:55.916Z,988.68
2022-07-29T05:43:57.460Z,988.75
2022-07-29T05:44:59.385Z,988.75
2022-07-29T05:46:01.389Z,988.75
2022-07-29T05:47:02.885Z,988.76
2022-07-29T05:48:04.490Z,988.78
2022-07-29T05:49:06.272Z,988.76
2022-07-29T05:50:08.045Z,988.84
2022-07-29T05:51:24.601Z,988.85
2022-07-29T05:52:11.519Z,988.88
2022-07-29T05:53:19.871Z,988.88
2022-07-29T05:54:15.234Z,988.91
2022-07-29T05:55:16.528Z,988.93
2022-07-29T05:56:28.377Z,988.92
2022-07-29T05:57:20.076Z,988.93
2022-07-29T05:58:21.951Z,988.91
2022-07-29T05:59:28.315Z,988.89
2022-07-29T06:00:25.366Z,988.84
2022-07-29T06:01:31.952Z,988.84
2022-07-29T06:02:28.819Z,988.85
2022-07-29T06:03:30.621Z,988.88
2022-07-29T06:04:32.197Z,988.87
2022-07-29T06:05:33.932Z,988.85
2022-07-29T06:06:35.663Z,988.85
2022-07-29T06:07:37.604Z,988.9
2022-07-29T06:08:39.112Z,988.89
2022-07-29T06:09:40.927Z,988.88
2022-07-29T06:10:42.647Z,988.88
2022-07-29T06:11:44.306Z,988.89
2022-07-29T06:12:46.079Z,988.88
2022-07-29T06:13:47.849Z,988.86
2022-07-29T06:14:53.759Z,988.82
2022-07-29T06:15:51.397Z,988.8
2022-07-29T06:16:53.140Z,988.82
2022-07-29T06:18:00.542Z,988.82
2022-07-29T06:18:56.511Z,988.82
2022-07-29T06:19:58.244Z,988.75
2022-07-29T06:20:59.931Z,988.78
2022-07-29T06:22:01.773Z,988.78
2022-07-29T06:23:03.414Z,988.82
2022-07-29T06:24:05.021Z,988.82
2022-07-29T06:25:06.927Z,988.84
2022-07-29T06:26:37.769Z,988.89
2022-07-29T06:27:10.734Z,988.88
2022-07-29T06:28:12.102Z,988.92
2022-07-29T06:29:13.696Z,988.97
2022-07-29T06:30:15.570Z,989
2022-07-29T06:31:32.255Z,988.96
2022-07-29T06:48:25.460Z,988.9
2022-07-29T06:49:37.251Z,988.9
2022-07-29T06:50:39.087Z,988.89
2022-07-29T06:51:40.289Z,988.91
2022-07-29T06:52:40.641Z,988.94
2022-07-29T06:56:05.059Z,988.95
2022-07-29T06:57:06.796Z,988.93
2022-07-29T06:58:08.455Z,988.98
2022-07-29T06:59:10.234Z,988.97
2022-07-29T07:00:11.962Z,988.96
2022-07-29T07:01:38.821Z,988.98
2022-07-29T07:02:15.497Z,988.98
2022-07-29T07:03:17.151Z,988.98
2022-07-29T07:04:19.572Z,989
2022-07-29T07:05:20.658Z,988.97
2022-07-29T07:06:22.343Z,988.98
2022-07-29T07:07:24.223Z,988.94
2022-07-29T07:08:25.884Z,989.02
2022-07-29T07:09:39.990Z,988.99
2022-07-29T07:10:29.286Z,988.99
2022-07-29T07:11:31.018Z,988.98
2022-07-29T07:13:08.232Z,989.02
2022-07-29T07:14:10.689Z,989.03
2022-07-29T07:15:12.481Z,989.06
2022-07-29T07:16:45.751Z,989.08
2022-07-29T07:17:16.077Z,989.07
2022-07-29T07:18:17.822Z,989.04
2022-07-29T07:19:19.416Z,989.02
2022-07-29T07:20:21.297Z,989.04
2022-07-29T07:21:38.291Z,989.05
2022-07-29T07:22:24.636Z,989.08
2022-07-29T07:23:26.520Z,989.06
2022-07-29T07:24:28.217Z,989.08
2022-07-29T07:25:29.814Z,989.07
2022-07-29T07:26:31.541Z,989.1
2022-07-29T07:27:33.274Z,989.12
2022-07-29T07:28:35.043Z,989.16
2022-07-29T07:29:36.779Z,989.19
2022-07-29T07:30:38.521Z,989.2
2022-07-29T07:31:40.364Z,989.2
2022-07-29T07:32:42.017Z,989.24
2022-07-29T07:33:43.742Z,989.23
2022-07-29T07:34:45.431Z,989.23
2022-07-29T07:35:47.319Z,989.27
2022-07-29T07:36:48.894Z,989.26
2022-07-29T07:37:50.644Z,989.25
2022-07-29T07:38:52.430Z,989.2
2022-07-29T07:39:54.095Z,989.21
2022-07-29T07:40:55.856Z,989.23
2022-07-29T07:41:57.709Z,989.24
2022-07-29T07:42:59.305Z,989.19
2022-07-29T07:44:01.060Z,989.18
2022-07-29T07:45:13.630Z,989.17
2022-07-29T07:46:04.643Z,989.16
2022-07-29T07:47:12.370Z,989.16
2022-07-29T07:48:08.043Z,989.17
2022-07-29T07:49:09.953Z,989.17
2022-07-29T07:50:15.133Z,989.15
2022-07-29T07:51:28.755Z,989.14
2022-07-29T07:52:14.944Z,989.15
2022-07-29T07:53:16.717Z,989.11
2022-07-29T07:54:20.660Z,989.11
2022-07-29T07:55:20.253Z,989.14
2022-07-29T07:56:34.812Z,989.17
2022-07-29T07:57:26.115Z,989.14
2022-07-29T07:58:30.621Z,989.11
2022-07-29T07:59:32.244Z,989.13
2022-07-29T08:00:34.307Z,989.07
2022-07-29T08:01:49.961Z,989.1
2022-07-29T08:02:37.415Z,989.12
2022-07-29T08:03:39.113Z,989.1
2022-07-29T08:04:41.350Z,989.11
2022-07-29T08:05:43.007Z,989.14
2022-07-29T08:06:44.449Z,989.13
2022-07-29T08:07:46.056Z,989.17
2022-07-29T08:08:47.766Z,989.13
2022-07-29T08:09:49.703Z,989.19
2022-07-29T08:10:51.371Z,989.19
2022-07-29T08:11:53.136Z,989.18
2022-07-29T08:12:54.855Z,989.21
2022-07-29T08:13:56.577Z,989.23
2022-07-29T08:14:58.181Z,989.23
2022-07-29T08:16:00.178Z,989.27
2022-07-29T08:17:01.996Z,989.28
2022-07-29T08:18:08.355Z,989.23
2022-07-29T08:19:05.250Z,989.22
2022-07-29T08:20:08.496Z,989.24
2022-07-29T08:21:24.083Z,989.23
2022-07-29T08:22:10.400Z,989.23
2022-07-29T08:23:12.262Z,989.21
2022-07-29T08:24:13.991Z,989.2
2022-07-29T08:25:16.940Z,989.18
2022-07-29T08:26:22.407Z,989.22
2022-07-29T08:27:41.953Z,989.17
2022-07-29T08:28:21.049Z,989.19
2022-07-29T08:29:22.786Z,989.22
2022-07-29T08:30:24.285Z,989.2
2022-07-29T08:31:29.316Z,989.23
2022-07-29T08:32:52.703Z,989.27
2022-07-29T08:33:32.666Z,989.27
2022-07-29T08:34:34.488Z,989.28
2022-07-29T08:35:36.642Z,989.3
2022-07-29T08:36:37.869Z,989.28
2022-07-29T08:37:40.051Z,989.3
2022-07-29T08:38:41.770Z,989.3
2022-07-29T08:39:43.405Z,989.32
2022-07-29T08:40:45.151Z,989.34
2022-07-29T08:41:57.440Z,989.33
2022-07-29T08:42:48.800Z,989.31
2022-07-29T08:43:52.941Z,989.32
2022-07-29T08:44:54.791Z,989.29
2022-07-29T08:45:56.559Z,989.32
2022-07-29T08:46:58.306Z,989.3
2022-07-29T08:48:00.092Z,989.29
2022-07-29T08:49:01.702Z,989.34
2022-07-29T08:50:03.706Z,989.24
2022-07-29T08:51:06.397Z,989.29
2022-07-29T08:52:06.931Z,989.27
2022-07-29T08:53:08.686Z,989.31
2022-07-29T08:54:10.475Z,989.29
2022-07-29T08:55:12.232Z,989.3
2022-07-29T08:56:18.690Z,989.32
2022-07-29T08:57:15.574Z,989.29
2022-07-29T08:58:17.389Z,989.26
2022-07-29T08:59:19.096Z,989.31
2022-07-29T09:00:22.508Z,989.29
2022-07-29T09:01:35.770Z,989.27
2022-07-29T09:02:24.481Z,989.3
2022-07-29T09:03:27.571Z,989.27
2022-07-29T09:04:27.838Z,989.27
2022-07-29T09:05:29.815Z,989.26
2022-07-29T09:06:31.924Z,989.3
2022-07-29T09:07:34.814Z,989.27
2022-07-29T09:08:34.739Z,989.26
2022-07-29T09:09:36.302Z,989.25
2022-07-29T09:10:38.260Z,989.23
2022-07-29T09:11:39.873Z,989.23
2022-07-29T09:12:41.942Z,989.2
2022-07-29T09:13:43.563Z,989.19
2022-07-29T09:14:45.071Z,989.13
2022-07-29T09:15:46.892Z,989.19
2022-07-29T09:16:52.757Z,989.2
2022-07-29T09:17:50.700Z,989.18
2022-07-29T09:18:52.087Z,989.17
2022-07-29T09:19:53.777Z,989.17
2022-07-29T09:20:55.624Z,989.19
2022-07-29T09:21:57.295Z,989.16
2022-07-29T09:22:59.084Z,989.21
2022-07-29T09:24:00.791Z,989.18
2022-07-29T09:25:02.442Z,989.16
2022-07-29T09:26:04.336Z,989.21
2022-07-29T09:27:06.024Z,989.17
2022-07-29T09:28:07.722Z,989.16
2022-07-29T09:29:09.455Z,989.13
2022-07-29T09:30:11.761Z,989.13
2022-07-29T09:31:20.620Z,989.16
2022-07-29T09:32:19.536Z,989.16
2022-07-29T09:33:22.090Z,989.17
2022-07-29T09:34:23.249Z,989.14
2022-07-29T09:35:24.913Z,989.1
2022-07-29T09:36:31.722Z,989.15
2022-07-29T09:37:28.151Z,989.14
2022-07-29T09:38:29.898Z,989.14
2022-07-29T09:39:31.681Z,989.15
2022-07-29T09:40:33.542Z,989.15
2022-07-29T09:41:35.111Z,989.14
2022-07-29T09:42:36.827Z,989.13
2022-07-29T09:43:38.574Z,989.14
2022-07-29T09:44:40.303Z,989.1
2022-07-29T09:45:42.048Z,989.12
2022-07-29T09:46:43.824Z,989.14
2022-07-29T09:47:45.657Z,989.07
2022-07-29T09:48:47.376Z,989.11
2022-07-29T09:49:49.046Z,989.12
2022-07-29T09:50:50.719Z,989.11
2022-07-29T09:51:52.444Z,989.12
2022-07-29T09:52:54.355Z,989.08
2022-07-29T09:53:55.918Z,989.13
2022-07-29T09:54:57.645Z,989.11
2022-07-29T09:55:59.426Z,989.14
2022-07-29T09:57:01.127Z,989.14
2022-07-29T09:58:03.040Z,989.19
2022-07-29T09:59:04.589Z,989.18
2022-07-29T10:00:06.351Z,989.14
2022-07-29T10:01:08.143Z,989.11
2022-07-29T10:02:09.860Z,989.15
2022-07-29T10:03:11.629Z,989.14
2022-07-29T10:04:13.309Z,989.13
2022-07-29T10:05:15.036Z,989.16
2022-07-29T10:06:23.987Z,989.15
2022-07-29T10:07:18.519Z,989.12
2022-07-29T10:08:20.392Z,989.09
2022-07-29T10:09:24.795Z,989.11
2022-07-29T10:10:28.909Z,989.1
2022-07-29T10:11:35.363Z,989.15
2022-07-29T10:12:32.407Z,989.16
2022-07-29T10:13:34.074Z,989.12
2022-07-29T10:14:35.882Z,989.14
2022-07-29T10:15:37.672Z,989.15
2022-07-29T10:16:39.533Z,989.13
2022-07-29T10:17:41.826Z,989.13
2022-07-29T10:18:42.790Z,989.07
2022-07-29T10:19:44.468Z,989.13
2022-07-29T10:20:46.224Z,989.07
2022-07-29T10:21:47.983Z,989.09
2022-07-29T10:22:53.321Z,989.02
2022-07-29T10:23:51.489Z,989.03
2022-07-29T10:24:53.229Z,989
2022-07-29T10:25:54.927Z,989.03
2022-07-29T10:26:56.770Z,989.07
2022-07-29T10:27:58.397Z,989.02
2022-07-29T10:29:00.134Z,989.02
2022-07-29T10:30:01.879Z,988.99
2022-07-29T10:31:03.641Z,989.06
2022-07-29T10:32:05.358Z,989.07
2022-07-29T10:33:07.104Z,989.03
2022-07-29T10:34:08.769Z,989.05
2022-07-29T10:35:10.558Z,989.07
2022-07-29T10:36:19.617Z,989
2022-07-29T10:37:14.005Z,989.02
2022-07-29T10:38:17.450Z,989.01
2022-07-29T10:39:17.519Z,988.97
2022-07-29T10:40:19.208Z,988.99
2022-07-29T10:41:20.987Z,988.95
2022-07-29T10:42:33.972Z,988.97
2022-07-29T10:43:24.413Z,988.93
2022-07-29T10:44:26.184Z,988.97
2022-07-29T10:45:27.859Z,988.89
2022-07-29T10:46:32.907Z,988.95
2022-07-29T10:47:31.490Z,988.92
2022-07-29T10:48:33.155Z,988.88
2022-07-29T10:49:34.860Z,988.89
2022-07-29T10:50:36.544Z,988.88
2022-07-29T10:51:38.326Z,988.86
2022-07-29T10:52:40.006Z,988.89
2022-07-29T10:53:41.816Z,988.9
2022-07-29T10:54:43.876Z,988.88
2022-07-29T10:55:45.215Z,988.85
2022-07-29T10:56:46.785Z,988.82
2022-07-29T10:57:53.630Z,988.85
2022-07-29T10:58:52.853Z,988.85
2022-07-29T10:59:53.141Z,988.82
2022-07-29T11:00:54.002Z,988.81
2022-07-29T11:02:57.775Z,988.75
2022-07-29T11:03:59.286Z,988.74
2022-07-29T11:05:01.168Z,988.73
2022-07-29T11:06:26.723Z,988.72
2022-07-29T11:07:04.592Z,988.69
2022-07-29T11:08:06.328Z,988.66
2022-07-29T11:09:07.846Z,988.7
2022-07-29T11:10:09.769Z,988.67
2022-07-29T11:11:18.508Z,988.66
2022-07-29T11:12:12.962Z,988.6
2022-07-29T11:13:14.704Z,988.61
2022-07-29T11:14:16.377Z,988.64
2022-07-29T11:15:18.193Z,988.64
2022-07-29T11:16:22.988Z,988.62
2022-07-29T11:17:21.806Z,988.62
2022-07-29T11:18:23.496Z,988.63
2022-07-29T11:19:26.591Z,988.62
2022-07-29T11:20:26.923Z,988.64
2022-07-29T11:21:28.579Z,988.61
2022-07-29T11:22:30.412Z,988.68
2022-07-29T11:23:33.399Z,988.65
2022-07-29T11:24:34.884Z,988.65
2022-07-29T11:25:43.053Z,988.66
2022-07-29T11:26:37.317Z,988.66
2022-07-29T11:27:39.062Z,988.6
2022-07-29T11:28:40.714Z,988.65
2022-07-29T11:29:43.059Z,988.69
2022-07-29T11:30:44.426Z,988.69
2022-07-29T11:31:46.411Z,988.65
2022-07-29T11:32:48.761Z,988.67
2022-07-29T11:33:56.211Z,988.69
2022-07-29T11:34:51.187Z,988.68
2022-07-29T11:36:00.807Z,988.69
2022-07-29T11:36:54.928Z,988.67
2022-07-29T11:37:57.769Z,988.69
2022-07-29T11:38:58.074Z,988.73
2022-07-29T11:40:02.200Z,988.7
2022-07-29T11:41:01.456Z,988.69
2022-07-29T11:42:05.163Z,988.72
2022-07-29T11:43:07.231Z,988.69
2022-07-29T11:44:06.732Z,988.67
2022-07-29T11:45:08.924Z,988.66
2022-07-29T11:46:25.646Z,988.64
2022-07-29T11:47:12.171Z,988.68
2022-07-29T11:48:29.388Z,988.69
2022-07-29T11:49:15.534Z,988.67
2022-07-29T11:50:17.131Z,988.66
2022-07-29T11:51:34.132Z,988.68
2022-07-29T11:52:20.555Z,988.65
2022-07-29T11:53:22.384Z,988.59
2022-07-29T11:54:27.329Z,988.64
2022-07-29T11:55:32.562Z,988.63
2022-07-29T11:56:27.556Z,988.63
2022-07-29T11:57:36.362Z,988.61
2022-07-29T11:58:30.836Z,988.57
2022-07-29T11:59:33.143Z,988.59
2022-07-29T12:00:34.954Z,988.57
2022-07-29T12:01:36.557Z,988.55
2022-07-29T12:02:38.414Z,988.55
2022-07-29T12:03:40.197Z,988.57
2022-07-29T12:04:43.615Z,988.55
2022-07-29T12:06:48.720Z,988.5
2022-07-29T12:07:03.404Z,988.55
2022-07-29T12:07:47.185Z,988.52
2022-07-29T12:08:48.364Z,988.54
2022-07-29T12:09:50.040Z,988.5
2022-07-29T12:10:51.880Z,988.48
2022-07-29T12:11:53.579Z,988.45
2022-07-29T12:12:55.580Z,988.49
2022-07-29T12:13:57.087Z,988.5
2022-07-29T12:14:58.766Z,988.45
2022-07-29T12:16:00.552Z,988.44
2022-07-29T12:17:02.452Z,988.42
2022-07-29T12:18:04.137Z,988.44
2022-07-29T12:19:05.704Z,988.44
2022-07-29T12:20:07.447Z,988.4
2022-07-29T12:21:16.399Z,988.43
2022-07-29T12:22:11.056Z,988.44
2022-07-29T12:23:12.648Z,988.39
2022-07-29T12:24:14.775Z,988.4
2022-07-29T12:25:33.060Z,988.42
2022-07-29T12:26:25.289Z,988.37
2022-07-29T12:27:19.613Z,988.37
2022-07-29T12:28:27.566Z,988.33
2022-07-29T12:29:35.567Z,988.29
2022-07-29T12:30:25.253Z,988.32
2022-07-29T12:31:42.106Z,988.31
2022-07-29T12:32:28.553Z,988.3
2022-07-29T12:33:29.998Z,988.32
2022-07-29T12:34:31.604Z,988.28
2022-07-29T12:35:33.550Z,988.27
2022-07-29T12:36:35.131Z,988.29
2022-07-29T12:37:40.957Z,988.29
2022-07-29T12:38:38.621Z,988.24
2022-07-29T12:39:40.488Z,988.21
2022-07-29T12:40:42.168Z,988.22
2022-07-29T12:41:44.180Z,988.24
2022-07-29T12:42:45.537Z,988.21
2022-07-29T12:43:47.394Z,988.22
2022-07-29T12:44:49.133Z,988.21
2022-07-29T12:45:50.918Z,988.21
2022-07-29T12:46:52.730Z,988.24
2022-07-29T12:47:54.170Z,988.23
2022-07-29T12:48:56.112Z,988.22
2022-07-29T12:49:57.744Z,988.23
2022-07-29T12:50:59.488Z,988.21
2022-07-29T12:52:01.283Z,988.19
2022-07-29T12:53:03.180Z,988.19
2022-07-29T12:54:04.627Z,988.19
2022-07-29T12:55:06.340Z,988.21
2022-07-29T12:56:42.412Z,988.23
2022-07-29T12:57:09.898Z,988.21
2022-07-29T12:58:11.629Z,988.2
2022-07-29T12:59:15.013Z,988.12
2022-07-29T13:00:15.587Z,988.16
2022-07-29T13:01:17.745Z,988.14
2022-07-29T13:02:18.855Z,988.18
2022-07-29T13:03:20.633Z,988.18
2022-07-29T13:04:22.639Z,988.2
2022-07-29T13:05:24.076Z,988.19
2022-07-29T13:06:30.833Z,988.21
2022-07-29T13:07:54.621Z,988.17
2022-07-29T13:08:28.785Z,988.18
2022-07-29T13:09:30.795Z,988.15
2022-07-29T13:10:32.859Z,988.14
2022-07-29T13:11:34.323Z,988.18
2022-07-29T13:12:36.086Z,988.16